sensor_id;sensor_type;location;lat;lon;timestamp;P1;durP1;ratioP1;P2;durP2;ratioP2
56269;SDS011;42176;43.240;27.880;2024-01-15T00:01:27;6.45;;;3.28;;
56269;SDS011;42176;43.240;27.880;2024-01-15T00:03:28;9.18;;;3.75;;
56269;SDS011;42176;43.240;27.880;2024-01-15T00:05:29;12.75;;;5.93;;
56269;SDS011;42176;43.240;27.880;2024-01-15T00:07:29;14.52;;;6.68;;
56269;SDS011;42176;43.240;27.880;2024-01-15T00:09:30;9.05;;;4.20;;
56269;SDS011;42176;43.240;27.880;2024-01-15T00:11:30;10.30;;;4.45;;
56269;SDS011;42176;43.240;27.880;2024-01-15T00:13:31;4.93;;;2.88;;
56269;SDS011;42176;43.240;27.880;2024-01-15T00:15:31;5.07;;;2.83;;
56269;SDS011;42176;43.240;27.880;2024-01-15T00:17:32;6.20;;;3.50;;
56269;SDS011;42176;43.240;27.880;2024-01-15T00:19:32;6.85;;;3.60;;
56269;SDS011;42176;43.240;27.880;2024-01-15T00:21:33;10.65;;;4.38;;
56269;SDS011;42176;43.240;27.880;2024-01-15T00:23:33;6.43;;;3.72;;
56269;SDS011;42176;43.240;27.880;2024-01-15T00:25:34;5.43;;;2.67;;
56269;SDS011;42176;43.240;27.880;2024-01-15T00:27:35;6.65;;;2.33;;
56269;SDS011;42176;43.240;27.880;2024-01-15T00:29:35;8.80;;;4.47;;
56269;SDS011;42176;43.240;27.880;2024-01-15T00:31:36;7.13;;;3.90;;
56269;SDS011;42176;43.240;27.880;2024-01-15T00:33:36;8.80;;;4.35;;
56269;SDS011;42176;43.240;27.880;2024-01-15T00:35:37;12.43;;;4.93;;
56269;SDS011;42176;43.240;27.880;2024-01-15T00:37:37;5.60;;;3.03;;
56269;SDS011;42176;43.240;27.880;2024-01-15T00:39:38;5.30;;;3.17;;
56269;SDS011;42176;43.240;27.880;2024-01-15T00:41:38;8.00;;;3.97;;
56269;SDS011;42176;43.240;27.880;2024-01-15T00:43:39;10.85;;;4.57;;
56269;SDS011;42176;43.240;27.880;2024-01-15T00:45:40;8.55;;;4.65;;
56269;SDS011;42176;43.240;27.880;2024-01-15T00:47:40;10.00;;;4.60;;
56269;SDS011;42176;43.240;27.880;2024-01-15T00:49:41;7.32;;;2.25;;
56269;SDS011;42176;43.240;27.880;2024-01-15T00:51:42;6.57;;;3.95;;
56269;SDS011;42176;43.240;27.880;2024-01-15T00:53:42;10.52;;;4.72;;
56269;SDS011;42176;43.240;27.880;2024-01-15T00:55:43;13.43;;;5.40;;
56269;SDS011;42176;43.240;27.880;2024-01-15T00:57:43;7.25;;;4.65;;
56269;SDS011;42176;43.240;27.880;2024-01-15T00:59:44;8.85;;;4.40;;
56269;SDS011;42176;43.240;27.880;2024-01-15T01:01:45;9.63;;;4.35;;
56269;SDS011;42176;43.240;27.880;2024-01-15T01:03:46;4.38;;;1.70;;
56269;SDS011;42176;43.240;27.880;2024-01-15T01:05:50;7.30;;;4.88;;
56269;SDS011;42176;43.240;27.880;2024-01-15T01:07:51;11.70;;;4.30;;
56269;SDS011;42176;43.240;27.880;2024-01-15T01:09:51;7.50;;;4.28;;
56269;SDS011;42176;43.240;27.880;2024-01-15T01:11:52;8.98;;;4.13;;
56269;SDS011;42176;43.240;27.880;2024-01-15T01:13:52;9.68;;;4.53;;
56269;SDS011;42176;43.240;27.880;2024-01-15T01:15:53;6.40;;;3.33;;
56269;SDS011;42176;43.240;27.880;2024-01-15T01:17:53;5.78;;;3.00;;
56269;SDS011;42176;43.240;27.880;2024-01-15T01:19:54;8.73;;;3.70;;
56269;SDS011;42176;43.240;27.880;2024-01-15T01:21:54;6.68;;;3.67;;
56269;SDS011;42176;43.240;27.880;2024-01-15T01:23:55;9.43;;;4.22;;
56269;SDS011;42176;43.240;27.880;2024-01-15T01:25:55;9.20;;;4.20;;
56269;SDS011;42176;43.240;27.880;2024-01-15T01:27:56;4.68;;;2.55;;
56269;SDS011;42176;43.240;27.880;2024-01-15T01:29:56;5.25;;;3.35;;
56269;SDS011;42176;43.240;27.880;2024-01-15T01:31:57;10.32;;;5.07;;
56269;SDS011;42176;43.240;27.880;2024-01-15T01:33:58;13.65;;;5.25;;
56269;SDS011;42176;43.240;27.880;2024-01-15T01:35:59;6.50;;;4.43;;
56269;SDS011;42176;43.240;27.880;2024-01-15T01:37:59;11.15;;;4.70;;
56269;SDS011;42176;43.240;27.880;2024-01-15T01:40:00;4.43;;;2.40;;
56269;SDS011;42176;43.240;27.880;2024-01-15T01:42:00;3.25;;;1.65;;
56269;SDS011;42176;43.240;27.880;2024-01-15T01:44:01;7.22;;;3.78;;
56269;SDS011;42176;43.240;27.880;2024-01-15T01:46:02;9.77;;;4.35;;
56269;SDS011;42176;43.240;27.880;2024-01-15T01:48:03;6.63;;;3.53;;
56269;SDS011;42176;43.240;27.880;2024-01-15T01:50:05;5.88;;;2.70;;
56269;SDS011;42176;43.240;27.880;2024-01-15T01:52:06;4.80;;;2.83;;
56269;SDS011;42176;43.240;27.880;2024-01-15T01:54:07;6.57;;;3.50;;
56269;SDS011;42176;43.240;27.880;2024-01-15T01:56:09;8.48;;;4.03;;
56269;SDS011;42176;43.240;27.880;2024-01-15T01:58:10;8.07;;;3.67;;
56269;SDS011;42176;43.240;27.880;2024-01-15T02:00:11;5.07;;;3.17;;
56269;SDS011;42176;43.240;27.880;2024-01-15T02:02:12;6.18;;;2.85;;
56269;SDS011;42176;43.240;27.880;2024-01-15T02:04:13;6.07;;;2.22;;
56269;SDS011;42176;43.240;27.880;2024-01-15T02:06:15;9.02;;;3.95;;
56269;SDS011;42176;43.240;27.880;2024-01-15T02:08:15;8.55;;;3.85;;
56269;SDS011;42176;43.240;27.880;2024-01-15T02:10:16;7.38;;;3.88;;
56269;SDS011;42176;43.240;27.880;2024-01-15T02:12:16;9.25;;;4.53;;
56269;SDS011;42176;43.240;27.880;2024-01-15T02:14:17;5.78;;;3.63;;
56269;SDS011;42176;43.240;27.880;2024-01-15T02:16:18;3.92;;;2.20;;
56269;SDS011;42176;43.240;27.880;2024-01-15T02:18:18;5.22;;;3.38;;
56269;SDS011;42176;43.240;27.880;2024-01-15T02:20:20;8.05;;;3.88;;
56269;SDS011;42176;43.240;27.880;2024-01-15T02:22:20;6.68;;;3.92;;
56269;SDS011;42176;43.240;27.880;2024-01-15T02:24:21;8.85;;;4.63;;
56269;SDS011;42176;43.240;27.880;2024-01-15T02:26:21;6.03;;;2.17;;
56269;SDS011;42176;43.240;27.880;2024-01-15T02:28:22;3.70;;;1.98;;
56269;SDS011;42176;43.240;27.880;2024-01-15T02:30:23;5.50;;;3.53;;
56269;SDS011;42176;43.240;27.880;2024-01-15T02:32:25;7.65;;;4.72;;
56269;SDS011;42176;43.240;27.880;2024-01-15T02:34:26;9.43;;;4.50;;
56269;SDS011;42176;43.240;27.880;2024-01-15T02:36:26;6.85;;;4.22;;
56269;SDS011;42176;43.240;27.880;2024-01-15T02:38:27;4.60;;;2.67;;
56269;SDS011;42176;43.240;27.880;2024-01-15T02:40:27;10.73;;;5.93;;
56269;SDS011;42176;43.240;27.880;2024-01-15T02:42:28;17.73;;;8.27;;
56269;SDS011;42176;43.240;27.880;2024-01-15T02:44:29;12.13;;;7.30;;
56269;SDS011;42176;43.240;27.880;2024-01-15T02:46:29;6.55;;;3.08;;
56269;SDS011;42176;43.240;27.880;2024-01-15T02:48:30;7.45;;;4.13;;
56269;SDS011;42176;43.240;27.880;2024-01-15T02:50:30;7.15;;;3.67;;
56269;SDS011;42176;43.240;27.880;2024-01-15T02:52:31;7.47;;;3.70;;
56269;SDS011;42176;43.240;27.880;2024-01-15T02:54:31;6.50;;;3.65;;
56269;SDS011;42176;43.240;27.880;2024-01-15T02:56:32;7.80;;;4.32;;
56269;SDS011;42176;43.240;27.880;2024-01-15T02:58:32;6.47;;;3.67;;
56269;SDS011;42176;43.240;27.880;2024-01-15T03:00:33;5.68;;;2.42;;
56269;SDS011;42176;43.240;27.880;2024-01-15T03:02:36;5.20;;;2.97;;
56269;SDS011;42176;43.240;27.880;2024-01-15T03:04:44;6.75;;;3.90;;
56269;SDS011;42176;43.240;27.880;2024-01-15T03:06:44;8.23;;;3.92;;
56269;SDS011;42176;43.240;27.880;2024-01-15T03:08:45;11.20;;;4.03;;
56269;SDS011;42176;43.240;27.880;2024-01-15T03:10:46;9.38;;;2.30;;
56269;SDS011;42176;43.240;27.880;2024-01-15T03:12:46;6.47;;;3.28;;
56269;SDS011;42176;43.240;27.880;2024-01-15T03:14:47;15.40;;;3.83;;
56269;SDS011;42176;43.240;27.880;2024-01-15T03:16:47;8.68;;;4.53;;
56269;SDS011;42176;43.240;27.880;2024-01-15T03:18:48;8.60;;;4.25;;
56269;SDS011;42176;43.240;27.880;2024-01-15T03:21:07;8.52;;;3.85;;
56269;SDS011;42176;43.240;27.880;2024-01-15T03:23:07;4.53;;;2.22;;
56269;SDS011;42176;43.240;27.880;2024-01-15T03:25:08;4.75;;;2.17;;
56269;SDS011;42176;43.240;27.880;2024-01-15T03:27:08;3.30;;;2.15;;
56269;SDS011;42176;43.240;27.880;2024-01-15T03:29:09;9.40;;;4.18;;
56269;SDS011;42176;43.240;27.880;2024-01-15T03:31:10;8.98;;;4.80;;
56269;SDS011;42176;43.240;27.880;2024-01-15T03:33:10;8.50;;;3.92;;
56269;SDS011;42176;43.240;27.880;2024-01-15T03:35:11;6.68;;;3.70;;
56269;SDS011;42176;43.240;27.880;2024-01-15T03:37:11;4.80;;;2.33;;
56269;SDS011;42176;43.240;27.880;2024-01-15T03:39:12;7.18;;;3.42;;
56269;SDS011;42176;43.240;27.880;2024-01-15T03:41:13;8.30;;;5.57;;
56269;SDS011;42176;43.240;27.880;2024-01-15T03:43:14;12.80;;;6.97;;
56269;SDS011;42176;43.240;27.880;2024-01-15T03:45:14;11.73;;;5.55;;
56269;SDS011;42176;43.240;27.880;2024-01-15T03:47:15;8.73;;;4.68;;
56269;SDS011;42176;43.240;27.880;2024-01-15T03:49:15;6.32;;;2.28;;
56269;SDS011;42176;43.240;27.880;2024-01-15T03:51:19;4.97;;;2.60;;
56269;SDS011;42176;43.240;27.880;2024-01-15T03:53:19;8.70;;;4.20;;
56269;SDS011;42176;43.240;27.880;2024-01-15T03:55:20;10.45;;;4.30;;
56269;SDS011;42176;43.240;27.880;2024-01-15T03:57:21;8.35;;;4.60;;
56269;SDS011;42176;43.240;27.880;2024-01-15T03:59:21;8.13;;;5.15;;
56269;SDS011;42176;43.240;27.880;2024-01-15T04:01:24;10.88;;;4.68;;
56269;SDS011;42176;43.240;27.880;2024-01-15T04:03:27;2.63;;;2.03;;
56269;SDS011;42176;43.240;27.880;2024-01-15T04:05:27;9.27;;;4.15;;
56269;SDS011;42176;43.240;27.880;2024-01-15T04:07:28;7.05;;;3.85;;
56269;SDS011;42176;43.240;27.880;2024-01-15T04:09:28;6.68;;;3.70;;
56269;SDS011;42176;43.240;27.880;2024-01-15T04:11:29;9.57;;;4.43;;
56269;SDS011;42176;43.240;27.880;2024-01-15T04:13:32;3.95;;;3.10;;
56269;SDS011;42176;43.240;27.880;2024-01-15T04:15:33;9.32;;;3.75;;
56269;SDS011;42176;43.240;27.880;2024-01-15T04:17:33;11.30;;;5.07;;
56269;SDS011;42176;43.240;27.880;2024-01-15T04:19:34;18.23;;;8.70;;
56269;SDS011;42176;43.240;27.880;2024-01-15T04:21:34;12.80;;;7.22;;
56269;SDS011;42176;43.240;27.880;2024-01-15T04:23:35;8.98;;;4.75;;
56269;SDS011;42176;43.240;27.880;2024-01-15T04:25:35;4.72;;;2.90;;
56269;SDS011;42176;43.240;27.880;2024-01-15T04:27:36;6.50;;;3.13;;
56269;SDS011;42176;43.240;27.880;2024-01-15T04:29:40;10.40;;;4.97;;
56269;SDS011;42176;43.240;27.880;2024-01-15T04:31:40;8.05;;;4.43;;
56269;SDS011;42176;43.240;27.880;2024-01-15T04:33:41;15.75;;;7.25;;
56269;SDS011;42176;43.240;27.880;2024-01-15T04:35:41;13.63;;;6.32;;
56269;SDS011;42176;43.240;27.880;2024-01-15T04:37:42;7.70;;;3.38;;
56269;SDS011;42176;43.240;27.880;2024-01-15T04:39:43;9.20;;;3.30;;
56269;SDS011;42176;43.240;27.880;2024-01-15T04:41:43;14.18;;;6.07;;
56269;SDS011;42176;43.240;27.880;2024-01-15T04:43:44;13.95;;;7.03;;
56269;SDS011;42176;43.240;27.880;2024-01-15T04:45:44;15.40;;;6.78;;
56269;SDS011;42176;43.240;27.880;2024-01-15T04:47:45;17.08;;;7.65;;
56269;SDS011;42176;43.240;27.880;2024-01-15T04:49:45;12.52;;;4.78;;
56269;SDS011;42176;43.240;27.880;2024-01-15T04:51:46;15.10;;;7.13;;
56269;SDS011;42176;43.240;27.880;2024-01-15T04:53:47;20.98;;;8.68;;
56269;SDS011;42176;43.240;27.880;2024-01-15T04:55:47;22.77;;;9.35;;
56269;SDS011;42176;43.240;27.880;2024-01-15T04:57:48;22.33;;;8.95;;
56269;SDS011;42176;43.240;27.880;2024-01-15T04:59:48;18.00;;;6.70;;
56269;SDS011;42176;43.240;27.880;2024-01-15T05:01:49;11.23;;;3.63;;
56269;SDS011;42176;43.240;27.880;2024-01-15T05:03:49;13.85;;;6.45;;
56269;SDS011;42176;43.240;27.880;2024-01-15T05:05:50;22.02;;;7.97;;
56269;SDS011;42176;43.240;27.880;2024-01-15T05:07:50;20.23;;;8.40;;
56269;SDS011;42176;43.240;27.880;2024-01-15T05:09:51;19.48;;;7.22;;
56269;SDS011;42176;43.240;27.880;2024-01-15T05:11:52;8.40;;;4.20;;
56269;SDS011;42176;43.240;27.880;2024-01-15T05:13:52;6.72;;;4.10;;
56269;SDS011;42176;43.240;27.880;2024-01-15T05:15:53;8.13;;;3.55;;
56269;SDS011;42176;43.240;27.880;2024-01-15T05:17:53;9.57;;;5.43;;
56269;SDS011;42176;43.240;27.880;2024-01-15T05:19:54;10.52;;;5.13;;
56269;SDS011;42176;43.240;27.880;2024-01-15T05:21:54;13.43;;;6.65;;
56269;SDS011;42176;43.240;27.880;2024-01-15T05:23:55;10.43;;;4.38;;
56269;SDS011;42176;43.240;27.880;2024-01-15T05:25:55;13.00;;;6.35;;
56269;SDS011;42176;43.240;27.880;2024-01-15T05:27:56;8.00;;;3.28;;
56269;SDS011;42176;43.240;27.880;2024-01-15T05:29:56;21.45;;;9.73;;
56269;SDS011;42176;43.240;27.880;2024-01-15T05:31:57;22.55;;;10.85;;
56269;SDS011;42176;43.240;27.880;2024-01-15T05:33:57;19.55;;;9.88;;
56269;SDS011;42176;43.240;27.880;2024-01-15T05:35:58;30.50;;;7.55;;
56269;SDS011;42176;43.240;27.880;2024-01-15T05:37:59;17.55;;;6.88;;
56269;SDS011;42176;43.240;27.880;2024-01-15T05:39:59;5.82;;;3.65;;
56269;SDS011;42176;43.240;27.880;2024-01-15T05:42:00;24.05;;;9.88;;
56269;SDS011;42176;43.240;27.880;2024-01-15T05:44:00;29.95;;;10.23;;
56269;SDS011;42176;43.240;27.880;2024-01-15T05:46:01;22.40;;;9.93;;
56269;SDS011;42176;43.240;27.880;2024-01-15T05:48:03;21.75;;;9.90;;
56269;SDS011;42176;43.240;27.880;2024-01-15T05:50:04;27.10;;;11.60;;
56269;SDS011;42176;43.240;27.880;2024-01-15T05:52:05;15.75;;;6.25;;
56269;SDS011;42176;43.240;27.880;2024-01-15T05:54:05;11.20;;;3.88;;
56269;SDS011;42176;43.240;27.880;2024-01-15T05:56:06;12.45;;;6.22;;
56269;SDS011;42176;43.240;27.880;2024-01-15T05:58:06;11.77;;;6.72;;
56269;SDS011;42176;43.240;27.880;2024-01-15T06:00:07;17.30;;;8.13;;
56269;SDS011;42176;43.240;27.880;2024-01-15T06:02:08;16.73;;;6.40;;
56269;SDS011;42176;43.240;27.880;2024-01-15T06:04:09;10.85;;;5.20;;
56269;SDS011;42176;43.240;27.880;2024-01-15T06:06:10;21.02;;;7.65;;
56269;SDS011;42176;43.240;27.880;2024-01-15T06:08:10;18.17;;;8.45;;
56269;SDS011;42176;43.240;27.880;2024-01-15T06:10:11;12.75;;;6.28;;
56269;SDS011;42176;43.240;27.880;2024-01-15T06:12:11;18.77;;;7.80;;
56269;SDS011;42176;43.240;27.880;2024-01-15T06:14:12;18.55;;;8.18;;
56269;SDS011;42176;43.240;27.880;2024-01-15T06:16:16;6.10;;;2.85;;
56269;SDS011;42176;43.240;27.880;2024-01-15T06:18:17;16.52;;;5.70;;
56269;SDS011;42176;43.240;27.880;2024-01-15T06:20:17;11.55;;;5.93;;
56269;SDS011;42176;43.240;27.880;2024-01-15T06:22:18;10.48;;;5.05;;
56269;SDS011;42176;43.240;27.880;2024-01-15T06:24:18;10.43;;;4.55;;
56269;SDS011;42176;43.240;27.880;2024-01-15T06:26:20;14.50;;;7.38;;
56269;SDS011;42176;43.240;27.880;2024-01-15T06:28:20;10.40;;;5.40;;
56269;SDS011;42176;43.240;27.880;2024-01-15T06:30:21;11.20;;;5.78;;
56269;SDS011;42176;43.240;27.880;2024-01-15T06:32:21;9.52;;;5.82;;
56269;SDS011;42176;43.240;27.880;2024-01-15T06:34:22;14.48;;;7.47;;
56269;SDS011;42176;43.240;27.880;2024-01-15T06:36:23;9.35;;;4.85;;
56269;SDS011;42176;43.240;27.880;2024-01-15T06:38:23;8.82;;;4.38;;
56269;SDS011;42176;43.240;27.880;2024-01-15T06:40:25;14.38;;;6.03;;
56269;SDS011;42176;43.240;27.880;2024-01-15T06:42:25;17.70;;;8.15;;
56269;SDS011;42176;43.240;27.880;2024-01-15T06:44:26;11.40;;;4.95;;
56269;SDS011;42176;43.240;27.880;2024-01-15T06:46:26;7.47;;;4.22;;
56269;SDS011;42176;43.240;27.880;2024-01-15T06:48:27;5.28;;;3.47;;
56269;SDS011;42176;43.240;27.880;2024-01-15T06:50:27;11.05;;;4.95;;
56269;SDS011;42176;43.240;27.880;2024-01-15T06:52:28;24.93;;;9.97;;
56269;SDS011;42176;43.240;27.880;2024-01-15T06:54:28;18.83;;;9.43;;
56269;SDS011;42176;43.240;27.880;2024-01-15T06:56:29;16.07;;;8.10;;
56269;SDS011;42176;43.240;27.880;2024-01-15T06:58:31;23.08;;;12.68;;
56269;SDS011;42176;43.240;27.880;2024-01-15T07:00:31;20.67;;;9.07;;
56269;SDS011;42176;43.240;27.880;2024-01-15T07:02:32;6.32;;;3.92;;
56269;SDS011;42176;43.240;27.880;2024-01-15T07:04:32;15.60;;;7.67;;
56269;SDS011;42176;43.240;27.880;2024-01-15T07:06:33;20.10;;;6.00;;
56269;SDS011;42176;43.240;27.880;2024-01-15T07:08:34;9.10;;;4.70;;
56269;SDS011;42176;43.240;27.880;2024-01-15T07:10:34;4.27;;;3.50;;
56269;SDS011;42176;43.240;27.880;2024-01-15T07:12:35;8.83;;;5.63;;
56269;SDS011;42176;43.240;27.880;2024-01-15T07:14:36;12.57;;;6.57;;
56269;SDS011;42176;43.240;27.880;2024-01-15T07:16:36;11.57;;;6.53;;
56269;SDS011;42176;43.240;27.880;2024-01-15T07:18:37;9.57;;;6.23;;
56269;SDS011;42176;43.240;27.880;2024-01-15T07:20:37;13.30;;;5.93;;
56269;SDS011;42176;43.240;27.880;2024-01-15T07:22:38;30.47;;;10.83;;
56269;SDS011;42176;43.240;27.880;2024-01-15T07:24:39;27.63;;;8.70;;
56269;SDS011;42176;43.240;27.880;2024-01-15T07:26:39;16.77;;;6.67;;
56269;SDS011;42176;43.240;27.880;2024-01-15T07:28:41;8.40;;;4.68;;
56269;SDS011;42176;43.240;27.880;2024-01-15T07:30:42;6.43;;;3.80;;
56269;SDS011;42176;43.240;27.880;2024-01-15T07:32:42;11.70;;;4.60;;
56269;SDS011;42176;43.240;27.880;2024-01-15T07:34:43;9.07;;;4.50;;
56269;SDS011;42176;43.240;27.880;2024-01-15T07:36:44;16.33;;;3.73;;
56269;SDS011;42176;43.240;27.880;2024-01-15T07:38:45;17.33;;;5.07;;
56269;SDS011;42176;43.240;27.880;2024-01-15T07:40:46;7.07;;;4.70;;
56269;SDS011;42176;43.240;27.880;2024-01-15T07:42:49;6.97;;;3.13;;
56269;SDS011;42176;43.240;27.880;2024-01-15T07:44:49;19.57;;;5.93;;
56269;SDS011;42176;43.240;27.880;2024-01-15T07:46:51;20.30;;;7.50;;
56269;SDS011;42176;43.240;27.880;2024-01-15T07:48:52;22.63;;;5.63;;
56269;SDS011;42176;43.240;27.880;2024-01-15T07:50:56;32.85;;;15.35;;
56269;SDS011;42176;43.240;27.880;2024-01-15T07:52:56;32.07;;;14.70;;
56269;SDS011;42176;43.240;27.880;2024-01-15T07:54:57;50.87;;;22.80;;
56269;SDS011;42176;43.240;27.880;2024-01-15T07:57:00;58.00;;;23.25;;
56269;SDS011;42176;43.240;27.880;2024-01-15T07:59:03;42.47;;;22.23;;
56269;SDS011;42176;43.240;27.880;2024-01-15T08:01:03;43.10;;;21.73;;
56269;SDS011;42176;43.240;27.880;2024-01-15T08:03:04;45.57;;;20.63;;
56269;SDS011;42176;43.240;27.880;2024-01-15T08:05:05;17.37;;;11.63;;
56269;SDS011;42176;43.240;27.880;2024-01-15T08:07:06;13.17;;;6.33;;
56269;SDS011;42176;43.240;27.880;2024-01-15T08:11:08;19.85;;;7.93;;
56269;SDS011;42176;43.240;27.880;2024-01-15T08:13:09;22.10;;;8.50;;
56269;SDS011;42176;43.240;27.880;2024-01-15T08:15:10;34.97;;;17.63;;
56269;SDS011;42176;43.240;27.880;2024-01-15T08:17:10;58.10;;;20.33;;
56269;SDS011;42176;43.240;27.880;2024-01-15T08:19:11;52.37;;;23.97;;
56269;SDS011;42176;43.240;27.880;2024-01-15T08:21:11;49.58;;;19.17;;
56269;SDS011;42176;43.240;27.880;2024-01-15T08:23:12;30.10;;;17.63;;
56269;SDS011;42176;43.240;27.880;2024-01-15T08:25:13;54.33;;;20.50;;
56269;SDS011;42176;43.240;27.880;2024-01-15T08:27:13;49.87;;;23.47;;
56269;SDS011;42176;43.240;27.880;2024-01-15T08:29:14;67.10;;;25.70;;
56269;SDS011;42176;43.240;27.880;2024-01-15T08:31:15;60.30;;;23.70;;
56269;SDS011;42176;43.240;27.880;2024-01-15T08:33:15;48.73;;;26.90;;
56269;SDS011;42176;43.240;27.880;2024-01-15T08:35:16;57.63;;;27.73;;
56269;SDS011;42176;43.240;27.880;2024-01-15T08:37:16;51.77;;;21.03;;
56269;SDS011;42176;43.240;27.880;2024-01-15T08:39:17;41.53;;;19.38;;
56269;SDS011;42176;43.240;27.880;2024-01-15T08:43:20;36.15;;;15.93;;
56269;SDS011;42176;43.240;27.880;2024-01-15T08:45:20;33.40;;;15.75;;
56269;SDS011;42176;43.240;27.880;2024-01-15T08:47:21;24.33;;;13.50;;
56269;SDS011;42176;43.240;27.880;2024-01-15T08:49:22;38.53;;;16.13;;
56269;SDS011;42176;43.240;27.880;2024-01-15T08:51:23;77.13;;;36.60;;
56269;SDS011;42176;43.240;27.880;2024-01-15T08:53:23;41.80;;;16.10;;
56269;SDS011;42176;43.240;27.880;2024-01-15T08:55:24;34.67;;;16.50;;
56269;SDS011;42176;43.240;27.880;2024-01-15T08:57:25;29.77;;;12.48;;
56269;SDS011;42176;43.240;27.880;2024-01-15T08:59:25;30.83;;;14.77;;
56269;SDS011;42176;43.240;27.880;2024-01-15T09:01:26;43.97;;;15.93;;
56269;SDS011;42176;43.240;27.880;2024-01-15T09:03:27;38.05;;;18.58;;
56269;SDS011;42176;43.240;27.880;2024-01-15T09:05:27;55.70;;;23.10;;
56269;SDS011;42176;43.240;27.880;2024-01-15T09:07:28;34.50;;;18.17;;
56269;SDS011;42176;43.240;27.880;2024-01-15T09:09:28;43.40;;;20.63;;
56269;SDS011;42176;43.240;27.880;2024-01-15T09:11:29;36.53;;;15.55;;
56269;SDS011;42176;43.240;27.880;2024-01-15T09:13:30;27.23;;;14.33;;
56269;SDS011;42176;43.240;27.880;2024-01-15T09:15:31;33.13;;;15.73;;
56269;SDS011;42176;43.240;27.880;2024-01-15T09:17:32;35.05;;;16.98;;
56269;SDS011;42176;43.240;27.880;2024-01-15T09:19:33;31.70;;;14.27;;
56269;SDS011;42176;43.240;27.880;2024-01-15T09:21:34;9.63;;;5.47;;
56269;SDS011;42176;43.240;27.880;2024-01-15T09:23:34;32.75;;;11.50;;
56269;SDS011;42176;43.240;27.880;2024-01-15T09:25:35;22.15;;;9.88;;
56269;SDS011;42176;43.240;27.880;2024-01-15T09:27:36;18.05;;;8.82;;
56269;SDS011;42176;43.240;27.880;2024-01-15T09:29:36;23.00;;;10.20;;
56269;SDS011;42176;43.240;27.880;2024-01-15T09:31:40;40.65;;;18.23;;
56269;SDS011;42176;43.240;27.880;2024-01-15T09:33:41;50.22;;;23.88;;
56269;SDS011;42176;43.240;27.880;2024-01-15T09:35:42;21.47;;;9.80;;
56269;SDS011;42176;43.240;27.880;2024-01-15T09:37:42;18.80;;;6.83;;
56269;SDS011;42176;43.240;27.880;2024-01-15T09:39:43;21.07;;;8.57;;
56269;SDS011;42176;43.240;27.880;2024-01-15T09:41:43;22.55;;;9.32;;
56269;SDS011;42176;43.240;27.880;2024-01-15T09:43:44;12.32;;;4.95;;
56269;SDS011;42176;43.240;27.880;2024-01-15T09:45:46;15.13;;;7.63;;
56269;SDS011;42176;43.240;27.880;2024-01-15T09:47:46;18.13;;;7.97;;
56269;SDS011;42176;43.240;27.880;2024-01-15T09:49:47;19.50;;;9.33;;
56269;SDS011;42176;43.240;27.880;2024-01-15T09:51:48;22.77;;;8.90;;
56269;SDS011;42176;43.240;27.880;2024-01-15T09:53:48;10.48;;;3.75;;
56269;SDS011;42176;43.240;27.880;2024-01-15T09:55:50;19.60;;;6.68;;
56269;SDS011;42176;43.240;27.880;2024-01-15T09:59:54;9.50;;;5.27;;
56269;SDS011;42176;43.240;27.880;2024-01-15T10:01:57;13.43;;;5.88;;
56269;SDS011;42176;43.240;27.880;2024-01-15T10:04:00;23.27;;;8.55;;
56269;SDS011;42176;43.240;27.880;2024-01-15T10:06:01;21.43;;;8.13;;
56269;SDS011;42176;43.240;27.880;2024-01-15T10:08:03;16.85;;;7.20;;
56269;SDS011;42176;43.240;27.880;2024-01-15T10:10:06;11.57;;;5.72;;
56269;SDS011;42176;43.240;27.880;2024-01-15T10:12:07;9.00;;;4.10;;
56269;SDS011;42176;43.240;27.880;2024-01-15T10:14:09;12.13;;;5.53;;
56269;SDS011;42176;43.240;27.880;2024-01-15T10:16:14;13.63;;;5.85;;
56269;SDS011;42176;43.240;27.880;2024-01-15T10:18:15;13.13;;;7.07;;
56269;SDS011;42176;43.240;27.880;2024-01-15T10:20:15;17.88;;;6.75;;
56269;SDS011;42176;43.240;27.880;2024-01-15T10:22:16;13.13;;;5.82;;
56269;SDS011;42176;43.240;27.880;2024-01-15T10:24:18;12.50;;;6.53;;
56269;SDS011;42176;43.240;27.880;2024-01-15T10:26:18;14.40;;;7.13;;
56269;SDS011;42176;43.240;27.880;2024-01-15T10:28:26;14.93;;;6.60;;
56269;SDS011;42176;43.240;27.880;2024-01-15T10:30:27;14.18;;;6.90;;
56269;SDS011;42176;43.240;27.880;2024-01-15T10:32:28;10.63;;;6.33;;
56269;SDS011;42176;43.240;27.880;2024-01-15T10:34:30;20.77;;;8.93;;
56269;SDS011;42176;43.240;27.880;2024-01-15T10:36:32;14.20;;;6.25;;
56269;SDS011;42176;43.240;27.880;2024-01-15T10:38:32;11.77;;;6.43;;
56269;SDS011;42176;43.240;27.880;2024-01-15T10:40:33;11.55;;;4.82;;
56269;SDS011;42176;43.240;27.880;2024-01-15T10:42:33;6.55;;;3.80;;
56269;SDS011;42176;43.240;27.880;2024-01-15T10:44:35;10.68;;;4.88;;
56269;SDS011;42176;43.240;27.880;2024-01-15T10:46:35;10.75;;;5.35;;
56269;SDS011;42176;43.240;27.880;2024-01-15T10:48:37;7.90;;;5.13;;
56269;SDS011;42176;43.240;27.880;2024-01-15T10:50:38;10.98;;;5.47;;
56269;SDS011;42176;43.240;27.880;2024-01-15T10:52:39;10.98;;;6.75;;
56269;SDS011;42176;43.240;27.880;2024-01-15T10:54:40;13.10;;;6.75;;
56269;SDS011;42176;43.240;27.880;2024-01-15T10:58:43;10.88;;;5.68;;
56269;SDS011;42176;43.240;27.880;2024-01-15T11:00:45;9.50;;;4.85;;
56269;SDS011;42176;43.240;27.880;2024-01-15T11:02:46;12.65;;;6.60;;
56269;SDS011;42176;43.240;27.880;2024-01-15T11:04:47;10.10;;;6.43;;
56269;SDS011;42176;43.240;27.880;2024-01-15T11:06:49;14.25;;;7.03;;
56269;SDS011;42176;43.240;27.880;2024-01-15T11:08:52;9.63;;;5.47;;
56269;SDS011;42176;43.240;27.880;2024-01-15T11:10:53;9.67;;;5.27;;
56269;SDS011;42176;43.240;27.880;2024-01-15T11:12:54;11.00;;;5.82;;
56269;SDS011;42176;43.240;27.880;2024-01-15T11:15:01;14.57;;;6.10;;
56269;SDS011;42176;43.240;27.880;2024-01-15T11:17:10;11.15;;;5.28;;
56269;SDS011;42176;43.240;27.880;2024-01-15T11:19:12;11.65;;;6.43;;
56269;SDS011;42176;43.240;27.880;2024-01-15T11:23:41;10.70;;;5.07;;
56269;SDS011;42176;43.240;27.880;2024-01-15T11:25:46;8.13;;;4.70;;
56269;SDS011;42176;43.240;27.880;2024-01-15T11:27:48;9.67;;;4.13;;
56269;SDS011;42176;43.240;27.880;2024-01-15T11:30:02;11.30;;;5.00;;
56269;SDS011;42176;43.240;27.880;2024-01-15T11:32:04;10.75;;;5.03;;
56269;SDS011;42176;43.240;27.880;2024-01-15T11:34:07;8.25;;;5.05;;
56269;SDS011;42176;43.240;27.880;2024-01-15T11:36:09;8.13;;;5.50;;
56269;SDS011;42176;43.240;27.880;2024-01-15T11:38:10;8.97;;;5.80;;
56269;SDS011;42176;43.240;27.880;2024-01-15T11:40:11;9.67;;;5.07;;
56269;SDS011;42176;43.240;27.880;2024-01-15T11:42:13;8.95;;;4.90;;
56269;SDS011;42176;43.240;27.880;2024-01-15T11:44:14;15.02;;;4.82;;
56269;SDS011;42176;43.240;27.880;2024-01-15T11:46:16;7.90;;;3.05;;
56269;SDS011;42176;43.240;27.880;2024-01-15T11:48:18;9.93;;;6.15;;
56269;SDS011;42176;43.240;27.880;2024-01-15T11:50:19;8.23;;;5.40;;
56269;SDS011;42176;43.240;27.880;2024-01-15T11:52:21;11.07;;;4.75;;
56269;SDS011;42176;43.240;27.880;2024-01-15T11:54:23;9.10;;;4.35;;
56269;SDS011;42176;43.240;27.880;2024-01-15T11:56:25;9.38;;;4.53;;
56269;SDS011;42176;43.240;27.880;2024-01-15T11:58:26;17.33;;;5.60;;
56269;SDS011;42176;43.240;27.880;2024-01-15T12:00:27;20.50;;;5.33;;
56269;SDS011;42176;43.240;27.880;2024-01-15T12:02:28;13.75;;;5.32;;